createdAt,value
2022-11-09T00:01:40.283Z,74.76
2022-11-09T00:03:43.638Z,74.76
2022-11-09T00:05:56.228Z,74.73
2022-11-09T00:07:59.670Z,74.81
2022-11-09T00:10:04.826Z,74.52
2022-11-09T00:12:08.470Z,74.69
2022-11-09T00:14:15.586Z,74.61
2022-11-09T00:16:20.888Z,74.64
2022-11-09T00:18:24.129Z,74.98
2022-11-09T00:20:27.717Z,75.17
2022-11-09T00:22:31.584Z,75.18
2022-11-09T00:24:35.443Z,75.14
2022-11-09T00:26:40.106Z,75.57
2022-11-09T00:28:43.509Z,75.60
2022-11-09T00:30:46.825Z,75.51
2022-11-09T00:32:50.119Z,75.62
2022-11-09T00:34:53.446Z,75.85
2022-11-09T00:36:56.785Z,75.92
2022-11-09T00:39:01.189Z,76.14
2022-11-09T00:41:05.980Z,76.34
2022-11-09T00:43:11.018Z,76.01
2022-11-09T00:45:14.396Z,76.50
2022-11-09T00:47:17.740Z,76.83
2022-11-09T00:49:21.162Z,76.86
2022-11-09T00:51:24.908Z,76.81
2022-11-09T00:53:28.632Z,76.85
2022-11-09T00:55:32.054Z,76.91
2022-11-09T00:57:35.418Z,76.86
2022-11-09T00:59:40.501Z,77.27
2022-11-09T01:01:43.945Z,77.41
2022-11-09T01:03:48.538Z,77.26
2022-11-09T01:05:52.142Z,77.43
2022-11-09T01:07:55.450Z,77.64
2022-11-09T01:09:59.456Z,77.73
2022-11-09T01:12:03.914Z,77.90
2022-11-09T01:14:07.332Z,77.65
2022-11-09T01:16:14.936Z,77.88
2022-11-09T01:18:19.967Z,77.92
2022-11-09T01:20:23.349Z,77.81
2022-11-09T01:22:26.740Z,77.68
2022-11-09T01:24:31.488Z,77.92
2022-11-09T01:26:34.830Z,77.67
2022-11-09T01:28:38.895Z,77.58
2022-11-09T01:30:43.801Z,77.41
2022-11-09T01:32:48.425Z,77.64
2022-11-09T01:34:51.796Z,77.64
2022-11-09T01:36:55.215Z,77.04
2022-11-09T01:38:58.877Z,76.94
2022-11-09T01:41:02.396Z,76.50
2022-11-09T01:43:08.826Z,76.49
2022-11-09T01:45:25.085Z,76.30
2022-11-09T01:47:28.608Z,75.86
2022-11-09T01:49:40.938Z,75.82
2022-11-09T01:51:49.819Z,75.89
2022-11-09T01:53:58.841Z,75.48
2022-11-09T01:56:07.977Z,75.44
2022-11-09T01:58:15.451Z,75.05
2022-11-09T02:00:19.424Z,74.91
2022-11-09T02:02:23.813Z,74.43
2022-11-09T02:04:31.088Z,74.36
2022-11-09T02:06:36.848Z,73.84
2022-11-09T02:08:41.599Z,74.03
2022-11-09T02:10:56.137Z,73.48
2022-11-09T02:13:00.498Z,73.64
2022-11-09T02:15:05.858Z,73.50
2022-11-09T02:17:09.748Z,73.67
2022-11-09T02:19:13.195Z,73.95
2022-11-09T02:21:18.049Z,73.99
2022-11-09T02:23:22.099Z,73.74
2022-11-09T02:25:26.271Z,73.73
2022-11-09T02:27:29.913Z,73.98
2022-11-09T02:29:37.830Z,73.88
2022-11-09T02:31:46.104Z,73.81
2022-11-09T02:34:00.913Z,73.69
2022-11-09T02:36:04.421Z,73.49
2022-11-09T02:38:11.022Z,73.60
2022-11-09T02:40:17.934Z,74.00
2022-11-09T02:42:21.976Z,74.05
2022-11-09T02:44:29.581Z,74.23
2022-11-09T02:46:35.508Z,74.09
2022-11-09T02:48:39.135Z,74.05
2022-11-09T02:50:42.469Z,74.14
2022-11-09T02:52:45.878Z,74.40
2022-11-09T02:54:50.803Z,74.66
2022-11-09T02:56:54.329Z,74.75
2022-11-09T02:58:58.299Z,74.84
2022-11-09T03:01:01.620Z,75.23
2022-11-09T03:03:05.605Z,75.49
2022-11-09T03:05:09.667Z,75.60
2022-11-09T03:07:16.840Z,75.83
2022-11-09T03:09:20.400Z,75.72
2022-11-09T03:11:25.150Z,75.97
2022-11-09T03:13:28.601Z,75.98
2022-11-09T03:15:32.477Z,76.01
2022-11-09T03:17:36.720Z,75.94
2022-11-09T03:19:40.313Z,76.08
2022-11-09T03:21:43.778Z,76.14
2022-11-09T03:23:48.032Z,75.93
2022-11-09T03:25:51.776Z,76.06
2022-11-09T03:27:59.714Z,75.66
2022-11-09T03:30:03.496Z,75.68
2022-11-09T03:32:07.279Z,75.34
2022-11-09T03:34:11.999Z,75.03
2022-11-09T03:36:16.170Z,74.87
2022-11-09T03:38:19.752Z,75.44
2022-11-09T03:40:24.786Z,75.18
2022-11-09T03:42:29.207Z,75.35
2022-11-09T03:44:33.899Z,75.51
2022-11-09T03:46:37.212Z,75.56
2022-11-09T03:48:40.719Z,75.67
2022-11-09T03:50:44.121Z,75.37
2022-11-09T03:52:48.130Z,75.58
2022-11-09T03:54:51.656Z,76.07
2022-11-09T03:56:55.004Z,75.96
2022-11-09T03:58:58.506Z,76.02
2022-11-09T04:01:03.195Z,76.17
2022-11-09T04:03:06.574Z,76.21
2022-11-09T04:05:11.439Z,76.65
2022-11-09T04:07:15.259Z,76.85
2022-11-09T04:09:18.597Z,77.20
2022-11-09T04:11:21.953Z,77.41
2022-11-09T04:13:25.373Z,77.37
2022-11-09T04:15:28.735Z,77.70
2022-11-09T04:17:33.516Z,77.75
2022-11-09T04:19:36.999Z,77.66
2022-11-09T04:21:40.274Z,78.12
2022-11-09T04:23:43.565Z,77.83
2022-11-09T04:25:46.863Z,77.73
2022-11-09T04:27:58.639Z,77.84
2022-11-09T04:30:02.001Z,77.63
2022-11-09T04:32:05.418Z,77.67
2022-11-09T04:34:10.104Z,78.14
2022-11-09T04:36:13.515Z,77.98
2022-11-09T04:38:16.957Z,78.04
2022-11-09T04:40:20.270Z,78.28
2022-11-09T04:42:23.678Z,78.14
2022-11-09T04:44:27.006Z,77.95
2022-11-09T04:46:30.438Z,78.01
2022-11-09T04:48:34.386Z,77.89
2022-11-09T04:50:39.203Z,78.09
2022-11-09T04:52:42.499Z,77.76
2022-11-09T04:54:45.843Z,77.75
2022-11-09T04:56:49.191Z,77.73
2022-11-09T04:58:52.473Z,77.73
2022-11-09T05:00:56.060Z,78.03
2022-11-09T05:03:01.751Z,77.41
2022-11-09T05:05:05.741Z,77.39
2022-11-09T05:07:12.205Z,77.25
2022-11-09T05:09:15.662Z,77.26
2022-11-09T05:11:19.142Z,76.90
2022-11-09T05:13:22.709Z,77.50
2022-11-09T05:15:26.548Z,78.51
2022-11-09T05:17:29.953Z,79.00
2022-11-09T05:19:33.340Z,78.29
2022-11-09T05:21:36.897Z,79.15
2022-11-09T05:23:58.787Z,78.84
2022-11-09T05:26:02.142Z,78.92
2022-11-09T05:28:05.635Z,79.13
2022-11-09T05:30:09.974Z,78.77
2022-11-09T05:32:14.114Z,78.63
2022-11-09T05:34:17.739Z,79.10
2022-11-09T05:36:21.489Z,78.43
2022-11-09T05:38:25.479Z,79.29
2022-11-09T05:40:30.152Z,79.67
2022-11-09T05:42:33.698Z,80.26
2022-11-09T05:44:37.036Z,79.95
2022-11-09T05:46:40.358Z,80.57
2022-11-09T05:48:45.066Z,80.36
2022-11-09T05:50:48.476Z,80.05
2022-11-09T05:53:00.290Z,80.20
2022-11-09T05:55:04.299Z,80.39
2022-11-09T05:57:09.052Z,80.34
2022-11-09T05:59:12.419Z,80.25
2022-11-09T06:01:18.858Z,80.55
2022-11-09T06:03:22.659Z,80.42
2022-11-09T06:05:26.117Z,80.96
2022-11-09T06:07:29.573Z,82.24
2022-11-09T06:09:32.873Z,84.18
2022-11-09T06:11:36.194Z,84.88
2022-11-09T06:13:40.947Z,86.33
2022-11-09T06:15:44.271Z,87.38
2022-11-09T06:17:52.505Z,88.41
2022-11-09T06:19:55.951Z,89.61
2022-11-09T06:21:59.286Z,90.12
2022-11-09T06:24:02.649Z,91.45
2022-11-09T06:26:09.518Z,92.33
2022-11-09T06:28:13.030Z,92.81
2022-11-09T06:30:18.120Z,94.14
2022-11-09T06:32:21.436Z,94.01
2022-11-09T06:34:24.740Z,94.52
2022-11-09T06:36:28.078Z,95.14
2022-11-09T06:38:31.871Z,95.47
2022-11-09T06:40:36.998Z,94.77
2022-11-09T06:42:40.460Z,94.30
2022-11-09T06:44:43.944Z,94.23
2022-11-09T06:46:48.653Z,94.20
2022-11-09T06:48:54.672Z,93.73
2022-11-09T06:51:01.202Z,93.92
2022-11-09T06:53:06.908Z,93.92
2022-11-09T06:55:10.879Z,93.32
2022-11-09T06:57:14.689Z,93.65
2022-11-09T06:59:17.958Z,93.29
2022-11-09T07:01:29.715Z,93.02
2022-11-09T07:03:34.461Z,92.53
2022-11-09T07:05:39.779Z,92.37
2022-11-09T07:07:43.080Z,97.48
2022-11-09T07:09:46.584Z,91.04
2022-11-09T07:11:50.275Z,91.23
2022-11-09T07:13:57.277Z,90.92
2022-11-09T07:16:01.138Z,91.37
2022-11-09T07:18:07.756Z,91.08
2022-11-09T07:20:14.842Z,90.57
2022-11-09T07:22:18.530Z,90.17
2022-11-09T07:24:22.137Z,90.66
2022-11-09T07:26:25.561Z,90.88
2022-11-09T07:28:29.123Z,90.55
2022-11-09T07:30:32.704Z,90.84
2022-11-09T07:35:00.307Z,91.42
2022-11-09T07:37:05.061Z,91.67
2022-11-09T07:39:08.448Z,91.88
2022-11-09T07:41:11.856Z,91.75
2022-11-09T07:43:15.871Z,91.25
2022-11-09T07:45:19.369Z,91.75
2022-11-09T07:47:22.910Z,91.60
2022-11-09T07:49:26.219Z,91.95
2022-11-09T07:51:29.562Z,91.73
2022-11-09T07:53:34.436Z,91.84
2022-11-09T07:55:38.038Z,91.47
2022-11-09T07:57:41.400Z,91.79
2022-11-09T07:59:44.805Z,91.51
2022-11-09T08:01:48.182Z,91.64
2022-11-09T08:03:51.528Z,91.61
2022-11-09T08:05:57.832Z,91.58
2022-11-09T08:08:02.889Z,91.33
2022-11-09T08:10:08.356Z,91.15
2022-11-09T08:12:11.723Z,91.10
2022-11-09T08:14:15.095Z,91.18
2022-11-09T08:16:18.523Z,90.77
2022-11-09T08:18:23.373Z,91.43
2022-11-09T08:20:26.848Z,90.50
2022-11-09T08:22:30.189Z,90.69
2022-11-09T08:24:33.618Z,90.75
2022-11-09T08:26:38.305Z,90.27
2022-11-09T08:28:41.611Z,89.92
2022-11-09T08:30:45.487Z,89.98
2022-11-09T08:32:49.869Z,90.01
2022-11-09T08:34:53.180Z,90.49
2022-11-09T08:36:56.593Z,90.36
2022-11-09T08:39:00.101Z,90.10
2022-11-09T08:41:03.467Z,89.87
2022-11-09T08:43:09.783Z,89.44
2022-11-09T08:45:13.294Z,89.81
2022-11-09T08:47:17.162Z,89.77
2022-11-09T08:49:20.607Z,89.00
2022-11-09T08:51:23.999Z,89.01
2022-11-09T08:53:29.125Z,88.48
2022-11-09T08:55:32.510Z,88.19
2022-11-09T08:57:36.094Z,88.26
2022-11-09T08:59:40.940Z,87.55
2022-11-09T09:01:44.429Z,87.60
2022-11-09T09:03:48.221Z,87.07
2022-11-09T09:05:51.543Z,86.37
2022-11-09T09:07:54.896Z,86.09
2022-11-09T09:09:58.269Z,85.83
2022-11-09T09:12:01.935Z,85.55
2022-11-09T09:14:05.326Z,83.92
2022-11-09T09:16:15.204Z,83.80
2022-11-09T09:18:18.842Z,82.84
2022-11-09T09:20:22.511Z,82.56
2022-11-09T09:22:25.890Z,82.11
2022-11-09T09:24:29.389Z,82.02
2022-11-09T09:26:32.866Z,81.93
2022-11-09T09:28:36.365Z,80.70
2022-11-09T09:30:40.197Z,80.82
2022-11-09T09:32:44.902Z,80.61
2022-11-09T09:34:48.415Z,78.76
2022-11-09T09:36:53.424Z,77.23
2022-11-09T09:38:57.628Z,77.00
2022-11-09T09:41:02.732Z,77.29
2022-11-09T09:43:06.124Z,75.89
2022-11-09T09:45:16.472Z,75.22
2022-11-09T09:47:23.977Z,74.14
2022-11-09T09:49:31.437Z,74.36
2022-11-09T09:51:41.452Z,73.93
2022-11-09T09:53:50.651Z,74.22
2022-11-09T09:55:57.556Z,74.58
2022-11-09T09:58:08.058Z,73.38
2022-11-09T10:00:20.524Z,72.78
2022-11-09T10:02:25.836Z,72.81
2022-11-09T10:04:36.571Z,72.50
2022-11-09T10:06:50.005Z,72.70
2022-11-09T10:09:01.601Z,71.73
2022-11-09T10:11:17.814Z,71.64
2022-11-09T10:13:46.765Z,71.56
2022-11-09T10:15:56.377Z,70.80
2022-11-09T10:18:10.457Z,71.04
2022-11-09T10:20:33.726Z,70.52
2022-11-09T10:22:46.988Z,70.49
2022-11-09T10:25:23.703Z,69.05
2022-11-09T10:27:36.212Z,69.69
2022-11-09T10:29:43.806Z,69.39
2022-11-09T10:31:49.285Z,68.51
2022-11-09T10:33:57.007Z,68.34
2022-11-09T10:36:10.018Z,68.01
2022-11-09T10:38:17.035Z,67.75
2022-11-09T10:40:25.014Z,67.09
2022-11-09T10:42:51.266Z,67.43
2022-11-09T10:45:17.088Z,67.02
2022-11-09T10:47:48.958Z,67.26
2022-11-09T10:50:33.547Z,67.20
2022-11-09T10:53:09.698Z,65.68
2022-11-09T10:55:34.088Z,65.62
2022-11-09T10:58:00.224Z,66.35
2022-11-09T11:00:23.146Z,65.48
2022-11-09T11:02:48.100Z,64.09
2022-11-09T11:05:38.924Z,63.55
2022-11-09T11:08:22.953Z,63.07
2022-11-09T11:10:44.794Z,62.01
2022-11-09T11:13:24.363Z,61.21
2022-11-09T11:15:47.144Z,60.73
2022-11-09T11:18:17.314Z,59.54
2022-11-09T11:20:39.799Z,59.25
2022-11-09T11:23:13.863Z,59.66
2022-11-09T11:25:55.466Z,59.53
2022-11-09T11:28:22.579Z,58.82
2022-11-09T11:30:44.474Z,58.83
2022-11-09T11:33:14.602Z,59.47
2022-11-09T11:35:44.724Z,58.42
2022-11-09T11:38:18.941Z,57.94
2022-11-09T11:41:01.552Z,58.84
2022-11-09T11:43:37.183Z,58.92
2022-11-09T11:46:09.795Z,59.10
2022-11-09T11:49:07.544Z,59.14
2022-11-09T11:51:36.969Z,59.06
2022-11-09T11:54:11.541Z,59.45
2022-11-09T11:56:38.943Z,59.67
2022-11-09T11:59:17.123Z,59.80
2022-11-09T12:01:57.839Z,59.60
2022-11-09T12:04:38.497Z,59.71
2022-11-09T12:07:16.571Z,58.99
2022-11-09T12:09:55.259Z,58.67
2022-11-09T12:12:31.132Z,57.09
2022-11-09T12:15:07.072Z,57.17
2022-11-09T12:17:39.769Z,57.48
2022-11-09T12:20:16.578Z,57.30
2022-11-09T12:22:45.531Z,57.20
2022-11-09T12:25:15.557Z,57.82
2022-11-09T12:27:53.376Z,57.71
2022-11-09T12:30:20.925Z,58.67
2022-11-09T12:32:47.857Z,58.66
2022-11-09T12:35:33.310Z,58.85
2022-11-09T12:38:00.105Z,58.48
2022-11-09T12:40:26.944Z,58.65
2022-11-09T12:42:56.728Z,57.37
2022-11-09T12:45:27.330Z,57.92
2022-11-09T12:47:49.434Z,58.57
2022-11-09T12:50:14.624Z,59.32
2022-11-09T12:52:39.564Z,58.37
2022-11-09T12:55:05.424Z,58.66
2022-11-09T12:57:29.822Z,58.66
2022-11-09T12:59:54.882Z,58.75
2022-11-09T13:02:24.981Z,57.42
2022-11-09T13:04:56.960Z,56.90
2022-11-09T13:07:30.985Z,56.69
2022-11-09T13:09:55.520Z,56.90
2022-11-09T13:12:20.224Z,57.04
2022-11-09T13:14:42.366Z,57.10
2022-11-09T13:17:43.928Z,57.46
2022-11-09T13:20:55.416Z,57.80
2022-11-09T13:26:24.708Z,55.39
2022-11-09T13:29:22.419Z,54.94
2022-11-09T13:32:13.849Z,54.24
2022-11-09T13:34:46.928Z,55.12
2022-11-09T13:37:37.408Z,55.18
2022-11-09T13:39:59.375Z,55.66
2022-11-09T13:42:29.846Z,56.36
2022-11-09T13:44:51.802Z,55.93
2022-11-09T13:47:23.277Z,55.94
2022-11-09T13:49:49.637Z,54.67
2022-11-09T13:52:50.549Z,54.26
2022-11-09T13:55:18.906Z,53.95
2022-11-09T13:57:42.296Z,54.55
2022-11-09T14:00:07.842Z,55.51
2022-11-09T14:02:29.727Z,56.32
2022-11-09T14:04:54.164Z,57.36
2022-11-09T14:07:23.157Z,57.67
2022-11-09T14:09:57.482Z,58.48
2022-11-09T14:12:32.952Z,58.80
2022-11-09T14:15:20.902Z,58.45
2022-11-09T14:17:53.886Z,59.05
2022-11-09T14:20:27.909Z,58.83
2022-11-09T14:22:49.912Z,58.92
2022-11-09T14:25:16.380Z,59.29
2022-11-09T14:27:38.057Z,59.61
2022-11-09T14:30:06.158Z,59.64
2022-11-09T14:32:31.243Z,60.19
2022-11-09T14:34:53.199Z,60.17
2022-11-09T14:37:17.226Z,59.75
2022-11-09T14:39:39.782Z,59.49
2022-11-09T14:42:02.195Z,58.77
2022-11-09T14:44:29.726Z,59.14
2022-11-09T14:46:54.291Z,59.84
2022-11-09T14:49:16.461Z,59.95
2022-11-09T14:51:40.691Z,59.74
2022-11-09T14:54:08.675Z,59.30
2022-11-09T14:56:33.575Z,59.90
2022-11-09T14:58:57.985Z,60.14
2022-11-09T15:01:25.131Z,60.42
2022-11-09T15:04:06.123Z,60.41
2022-11-09T15:06:29.130Z,60.66
2022-11-09T15:08:57.074Z,61.32
2022-11-09T15:11:20.925Z,61.24
2022-11-09T15:13:43.245Z,61.53
2022-11-09T15:16:06.784Z,61.80
2022-11-09T15:18:33.988Z,62.18
2022-11-09T15:21:19.139Z,62.40
2022-11-09T15:23:43.763Z,62.10
2022-11-09T15:26:05.758Z,62.09
2022-11-09T15:28:31.487Z,62.52
2022-11-09T15:31:16.093Z,62.61
2022-11-09T15:33:47.538Z,62.97
2022-11-09T15:36:29.473Z,63.25
2022-11-09T15:38:58.686Z,62.76
2022-11-09T15:41:22.561Z,63.87
2022-11-09T15:43:46.340Z,63.81
2022-11-09T15:46:08.743Z,64.14
2022-11-09T15:48:30.811Z,64.31
2022-11-09T15:50:53.007Z,64.37
2022-11-09T15:53:15.589Z,64.67
2022-11-09T15:55:37.534Z,64.93
2022-11-09T15:57:59.861Z,65.20
2022-11-09T16:00:23.832Z,64.85
2022-11-09T16:02:46.909Z,64.92
2022-11-09T16:05:09.194Z,64.92
2022-11-09T16:07:31.601Z,65.44
2022-11-09T16:09:53.660Z,65.41
2022-11-09T16:12:15.807Z,65.51
2022-11-09T16:14:38.125Z,65.47
2022-11-09T16:17:01.257Z,65.46
2022-11-09T16:19:23.305Z,65.45
2022-11-09T16:21:45.539Z,65.62
2022-11-09T16:24:07.874Z,65.87
2022-11-09T16:26:30.121Z,66.19
2022-11-09T16:28:51.805Z,66.33
2022-11-09T16:31:14.557Z,67.02
2022-11-09T16:33:38.086Z,66.57
2022-11-09T16:36:02.898Z,66.67
2022-11-09T16:38:24.840Z,66.54
2022-11-09T16:40:46.955Z,67.21
2022-11-09T16:43:08.898Z,67.35
2022-11-09T16:45:33.548Z,67.29
2022-11-09T16:47:57.742Z,67.61
2022-11-09T16:50:20.982Z,67.07
2022-11-09T16:52:42.994Z,68.44
2022-11-09T16:55:07.649Z,67.72
2022-11-09T16:57:29.471Z,67.80
2022-11-09T16:59:51.555Z,67.97
2022-11-09T17:02:14.375Z,68.42
2022-11-09T17:04:36.306Z,67.99
2022-11-09T17:06:59.777Z,68.03
2022-11-09T17:09:21.871Z,68.31
2022-11-09T17:11:44.459Z,68.42
2022-11-09T17:14:06.850Z,68.36
2022-11-09T17:16:29.102Z,69.07
2022-11-09T17:18:53.330Z,69.73
2022-11-09T17:21:16.350Z,69.47
2022-11-09T17:23:39.760Z,69.98
2022-11-09T17:26:03.825Z,70.45
2022-11-09T17:28:26.617Z,70.35
2022-11-09T17:30:48.753Z,70.44
2022-11-09T17:33:10.868Z,70.15
2022-11-09T17:35:36.485Z,70.30
2022-11-09T17:37:58.891Z,69.95
2022-11-09T17:40:22.336Z,69.86
2022-11-09T17:42:44.552Z,69.72
2022-11-09T17:45:06.830Z,69.23
2022-11-09T17:47:29.094Z,68.81
2022-11-09T17:49:51.209Z,68.70
2022-11-09T17:52:12.941Z,69.10
2022-11-09T17:54:37.257Z,68.95
2022-11-09T17:57:02.392Z,68.85
2022-11-09T17:59:24.299Z,68.33
2022-11-09T18:01:46.435Z,68.60
2022-11-09T18:04:09.416Z,68.60
2022-11-09T18:06:31.470Z,68.49
2022-11-09T18:09:17.809Z,68.40
2022-11-09T18:11:35.151Z,68.17
2022-11-09T18:13:59.622Z,68.43
2022-11-09T18:16:21.487Z,68.03
2022-11-09T18:18:43.632Z,68.87
2022-11-09T18:21:09.016Z,69.15
2022-11-09T18:23:30.787Z,69.46
2022-11-09T18:25:59.460Z,69.37
2022-11-09T18:28:21.505Z,69.19
2022-11-09T18:30:45.140Z,69.78
2022-11-09T18:33:07.228Z,69.86
2022-11-09T18:35:29.435Z,70.01
2022-11-09T18:37:52.496Z,70.71
2022-11-09T18:40:14.938Z,71.42
2022-11-09T18:42:36.790Z,71.67
2022-11-09T18:44:58.859Z,71.69
2022-11-09T18:47:23.652Z,71.37
2022-11-09T18:49:45.757Z,71.16
2022-11-09T18:52:08.255Z,70.87
2022-11-09T18:54:30.012Z,70.76
2022-11-09T18:56:52.930Z,71.44
2022-11-09T18:59:15.208Z,71.80
2022-11-09T19:01:37.152Z,71.59
2022-11-09T19:04:01.805Z,72.02
2022-11-09T19:06:24.421Z,71.89
2022-11-09T19:09:13.086Z,71.90
2022-11-09T19:11:35.060Z,71.66
2022-11-09T19:13:57.539Z,72.08
2022-11-09T19:16:19.771Z,71.64
2022-11-09T19:18:41.852Z,71.42
2022-11-09T19:21:06.028Z,71.25
2022-11-09T19:23:33.001Z,71.30
2022-11-09T19:25:56.368Z,71.32
2022-11-09T19:28:18.411Z,71.56
2022-11-09T19:30:40.718Z,71.18
2022-11-09T19:33:03.525Z,71.33
2022-11-09T19:35:30.988Z,72.01
2022-11-09T19:38:03.668Z,71.97
2022-11-09T19:40:28.605Z,72.00
2022-11-09T19:42:50.298Z,72.51
2022-11-09T19:45:13.246Z,72.59
2022-11-09T19:47:35.428Z,72.44
2022-11-09T19:49:57.672Z,72.68
2022-11-09T19:52:19.660Z,72.45
2022-11-09T19:54:43.667Z,72.78
2022-11-09T19:57:05.592Z,72.90
2022-11-09T19:59:27.609Z,72.57
2022-11-09T20:01:49.604Z,72.77
2022-11-09T20:04:11.937Z,73.06
2022-11-09T20:06:33.574Z,73.40
2022-11-09T20:08:56.125Z,73.00
2022-11-09T20:11:35.769Z,73.13
2022-11-09T20:13:57.632Z,72.53
2022-11-09T20:16:19.660Z,73.05
2022-11-09T20:18:42.973Z,73.30
2022-11-09T20:21:06.696Z,73.19
2022-11-09T20:23:28.214Z,73.02
2022-11-09T20:25:50.389Z,73.29
2022-11-09T20:28:13.969Z,73.48
2022-11-09T20:30:35.865Z,73.75
2022-11-09T20:32:57.856Z,73.61
2022-11-09T20:35:19.955Z,73.46
2022-11-09T20:37:42.234Z,73.36
2022-11-09T20:40:07.902Z,73.46
2022-11-09T20:42:29.973Z,73.94
2022-11-09T20:44:54.618Z,73.65
2022-11-09T20:47:35.426Z,73.84
2022-11-09T20:49:57.653Z,73.74
2022-11-09T20:52:19.920Z,73.16
2022-11-09T20:54:41.885Z,73.39
2022-11-09T20:57:03.927Z,73.62
2022-11-09T20:59:25.893Z,73.76
2022-11-09T21:01:49.231Z,73.96
2022-11-09T21:04:11.331Z,73.77
2022-11-09T21:06:33.137Z,74.06
2022-11-09T21:08:56.954Z,74.13
2022-11-09T21:11:20.042Z,74.30
2022-11-09T21:13:44.086Z,74.54
2022-11-09T21:16:07.500Z,75.12
2022-11-09T21:18:30.737Z,75.22
2022-11-09T21:20:52.876Z,74.94
2022-11-09T21:23:32.657Z,75.00
2022-11-09T21:26:17.303Z,74.84
2022-11-09T21:28:57.177Z,75.02
2022-11-09T21:31:19.266Z,74.97
2022-11-09T21:33:42.673Z,74.58
2022-11-09T21:36:09.493Z,74.34
2022-11-09T21:38:33.858Z,74.55
2022-11-09T21:40:55.647Z,74.41
2022-11-09T21:43:17.920Z,74.52
2022-11-09T21:45:39.964Z,74.54
2022-11-09T21:48:01.855Z,74.63
2022-11-09T21:50:25.175Z,74.98
2022-11-09T21:52:46.821Z,74.75
2022-11-09T21:55:09.357Z,74.93
2022-11-09T21:57:31.266Z,75.33
2022-11-09T21:59:53.489Z,74.55
2022-11-09T22:02:15.601Z,74.84
2022-11-09T22:04:37.542Z,74.92
2022-11-09T22:07:00.934Z,75.19
2022-11-09T22:09:22.984Z,75.22
2022-11-09T22:12:03.514Z,75.78
2022-11-09T22:14:43.215Z,75.67
2022-11-09T22:17:08.553Z,75.52
2022-11-09T22:19:48.448Z,75.54
2022-11-09T22:22:11.967Z,75.79
2022-11-09T22:24:33.655Z,75.54
2022-11-09T22:26:55.615Z,75.44
2022-11-09T22:29:17.721Z,75.71
2022-11-09T22:31:39.924Z,76.17
2022-11-09T22:34:02.006Z,75.39
2022-11-09T22:36:24.235Z,76.00
2022-11-09T22:38:47.937Z,75.89
2022-11-09T22:41:12.392Z,75.96
2022-11-09T22:43:34.887Z,75.60
2022-11-09T22:45:56.931Z,76.23
2022-11-09T22:48:19.490Z,75.85
2022-11-09T22:50:41.359Z,76.46
2022-11-09T22:53:04.201Z,76.30
2022-11-09T22:55:27.380Z,76.70
2022-11-09T22:57:49.287Z,76.22
2022-11-09T23:00:14.820Z,76.89
2022-11-09T23:02:36.613Z,76.77
2022-11-09T23:04:58.633Z,76.50
2022-11-09T23:07:20.656Z,76.64
2022-11-09T23:09:42.763Z,76.38
2022-11-09T23:12:06.422Z,76.35
2022-11-09T23:14:42.200Z,76.37
2022-11-09T23:17:24.415Z,76.07
2022-11-09T23:19:45.222Z,76.56
2022-11-09T23:22:07.206Z,76.44
2022-11-09T23:24:47.038Z,76.49
2022-11-09T23:27:10.471Z,76.61
2022-11-09T23:29:32.595Z,76.51
2022-11-09T23:31:57.101Z,76.22
2022-11-09T23:34:19.057Z,76.72
2022-11-09T23:36:40.944Z,76.93
2022-11-09T23:39:02.823Z,76.95
2022-11-09T23:41:24.870Z,76.75
2022-11-09T23:43:49.875Z,77.04
2022-11-09T23:46:14.114Z,77.42
2022-11-09T23:48:36.219Z,77.06
2022-11-09T23:50:59.724Z,77.42
2022-11-09T23:53:21.703Z,77.30
2022-11-09T23:55:43.920Z,77.65
2022-11-09T23:58:06.483Z,77.37
